createdAt,value
2022-07-25T00:01:44.111Z,11.52
2022-07-25T00:04:12.589Z,12.65
2022-07-25T00:06:41.832Z,11.00
2022-07-25T00:09:08.810Z,11.25
2022-07-25T00:11:35.914Z,13.15
2022-07-25T00:14:02.729Z,13.77
2022-07-25T00:16:29.931Z,13.65
2022-07-25T00:18:56.872Z,13.65
2022-07-25T00:21:23.549Z,12.43
2022-07-25T00:23:50.597Z,12.05
2022-07-25T00:26:17.391Z,11.45
2022-07-25T00:28:44.395Z,14.07
2022-07-25T00:31:11.272Z,14.52
2022-07-25T00:33:37.994Z,15.68
2022-07-25T00:36:04.957Z,11.90
2022-07-25T00:38:31.532Z,13.60
2022-07-25T00:40:58.246Z,12.63
2022-07-25T00:43:24.925Z,12.95
2022-07-25T00:45:51.567Z,12.23
2022-07-25T00:48:18.733Z,14.63
2022-07-25T00:50:45.586Z,12.18
2022-07-25T00:53:12.316Z,11.35
2022-07-25T00:55:39.050Z,12.55
2022-07-25T00:58:05.774Z,10.90
2022-07-25T01:00:32.865Z,11.68
2022-07-25T01:02:59.814Z,11.90
2022-07-25T01:05:26.574Z,12.85
2022-07-25T01:07:54.200Z,12.50
2022-07-25T01:10:20.822Z,12.07
2022-07-25T01:12:49.459Z,15.10
2022-07-25T01:15:21.000Z,12.45
2022-07-25T01:17:48.214Z,12.13
2022-07-25T01:20:26.110Z,13.82
2022-07-25T01:22:53.231Z,12.77
2022-07-25T01:25:20.765Z,13.35
2022-07-25T01:27:54.449Z,14.68
2022-07-25T01:30:23.982Z,15.52
2022-07-25T01:32:50.766Z,13.05
2022-07-25T01:35:17.889Z,12.75
2022-07-25T01:37:45.551Z,12.57
2022-07-25T01:40:13.934Z,14.02
2022-07-25T01:42:41.016Z,12.60
2022-07-25T01:45:08.296Z,14.05
2022-07-25T01:47:35.059Z,21.02
2022-07-25T01:50:01.798Z,15.10
2022-07-25T01:52:28.397Z,12.55
2022-07-25T01:54:55.005Z,13.73
2022-07-25T01:57:21.829Z,14.32
2022-07-25T01:59:50.987Z,14.57
2022-07-25T02:02:17.575Z,14.10
2022-07-25T02:04:44.217Z,12.48
2022-07-25T02:07:10.811Z,13.68
2022-07-25T02:09:37.448Z,12.18
2022-07-25T02:12:04.259Z,13.55
2022-07-25T02:14:30.836Z,14.75
2022-07-25T02:16:57.495Z,12.98
2022-07-25T02:19:24.174Z,13.82
2022-07-25T02:21:50.824Z,13.63
2022-07-25T02:24:17.684Z,13.38
2022-07-25T02:26:44.300Z,12.82
2022-07-25T02:29:10.969Z,12.90
2022-07-25T02:31:37.583Z,13.73
2022-07-25T02:34:04.950Z,14.25
2022-07-25T02:36:31.847Z,14.88
2022-07-25T02:38:58.549Z,13.57
2022-07-25T02:41:25.217Z,13.70
2022-07-25T02:43:51.931Z,14.57
2022-07-25T02:46:19.212Z,13.20
2022-07-25T02:48:45.868Z,16.17
2022-07-25T02:51:12.557Z,13.95
2022-07-25T02:53:56.744Z,13.50
2022-07-25T02:56:24.648Z,13.95
2022-07-25T02:58:51.194Z,13.90
2022-07-25T03:01:17.966Z,12.57
2022-07-25T03:03:44.809Z,13.82
2022-07-25T03:06:11.463Z,13.10
2022-07-25T03:08:38.041Z,14.20
2022-07-25T03:11:04.817Z,14.18
2022-07-25T03:13:33.163Z,14.90
2022-07-25T03:15:59.991Z,13.20
2022-07-25T03:18:26.576Z,13.20
2022-07-25T03:20:53.173Z,13.48
2022-07-25T03:23:19.815Z,12.88
2022-07-25T03:25:46.551Z,15.20
2022-07-25T03:28:13.125Z,16.30
2022-07-25T03:30:39.713Z,15.27
2022-07-25T03:33:06.330Z,15.30
2022-07-25T03:35:32.905Z,14.25
2022-07-25T03:38:01.812Z,13.48
2022-07-25T03:40:28.518Z,14.57
2022-07-25T03:42:55.120Z,13.88
2022-07-25T03:45:21.733Z,14.43
2022-07-25T03:47:48.340Z,15.55
2022-07-25T03:50:15.006Z,15.02
2022-07-25T03:52:41.825Z,14.27
2022-07-25T03:55:10.822Z,16.55
2022-07-25T03:57:37.929Z,16.75
2022-07-25T04:00:07.255Z,17.42
2022-07-25T04:02:34.294Z,19.15
2022-07-25T04:05:01.101Z,15.88
2022-07-25T04:07:27.764Z,15.63
2022-07-25T04:09:54.352Z,15.00
2022-07-25T04:12:20.954Z,18.00
2022-07-25T04:14:47.549Z,17.42
2022-07-25T04:17:14.143Z,17.10
2022-07-25T04:19:41.133Z,16.88
2022-07-25T04:22:07.763Z,13.98
2022-07-25T04:24:34.377Z,21.10
2022-07-25T04:27:00.945Z,19.30
2022-07-25T04:29:27.568Z,16.92
2022-07-25T04:31:54.182Z,17.42
2022-07-25T04:34:21.004Z,20.15
2022-07-25T04:36:47.600Z,17.42
2022-07-25T04:39:14.231Z,15.82
2022-07-25T04:41:40.974Z,15.52
2022-07-25T04:44:09.108Z,18.00
2022-07-25T04:46:36.031Z,19.23
2022-07-25T04:49:02.733Z,17.45
2022-07-25T04:51:29.359Z,17.52
2022-07-25T04:53:56.004Z,17.73
2022-07-25T04:56:22.604Z,17.52
2022-07-25T04:58:49.442Z,17.25
2022-07-25T05:01:16.260Z,17.45
2022-07-25T05:03:50.028Z,16.02
2022-07-25T05:06:18.265Z,17.05
2022-07-25T05:08:45.381Z,16.95
2022-07-25T05:11:12.026Z,19.45
2022-07-25T05:13:38.613Z,16.15
2022-07-25T05:16:05.639Z,15.95
2022-07-25T05:18:34.307Z,17.23
2022-07-25T05:21:01.153Z,15.68
2022-07-25T05:23:27.773Z,16.65
2022-07-25T05:25:54.415Z,16.58
2022-07-25T05:28:20.978Z,15.40
2022-07-25T05:30:47.618Z,15.43
2022-07-25T05:33:14.200Z,15.82
2022-07-25T05:35:40.953Z,16.42
2022-07-25T05:38:07.597Z,16.67
2022-07-25T05:40:34.221Z,18.20
2022-07-25T05:43:03.243Z,17.60
2022-07-25T05:45:30.808Z,18.42
2022-07-25T05:47:57.440Z,20.20
2022-07-25T05:50:24.182Z,19.35
2022-07-25T05:52:51.032Z,16.50
2022-07-25T05:55:17.840Z,18.38
2022-07-25T05:57:44.487Z,18.70
2022-07-25T06:00:12.122Z,19.33
2022-07-25T06:02:38.898Z,15.60
2022-07-25T06:05:05.818Z,16.10
2022-07-25T06:07:32.408Z,16.67
2022-07-25T06:09:59.021Z,16.00
2022-07-25T06:12:25.597Z,17.55
2022-07-25T06:14:52.437Z,18.35
2022-07-25T06:17:19.036Z,19.48
2022-07-25T06:19:45.637Z,15.73
2022-07-25T06:22:12.639Z,18.45
2022-07-25T06:24:41.416Z,15.30
2022-07-25T06:27:08.946Z,18.90
2022-07-25T06:29:35.763Z,17.30
2022-07-25T06:32:02.904Z,15.98
2022-07-25T06:34:29.680Z,16.83
2022-07-25T06:36:57.616Z,17.95
2022-07-25T06:39:25.206Z,16.60
2022-07-25T06:41:52.161Z,15.73
2022-07-25T06:44:18.751Z,17.33
2022-07-25T06:46:45.402Z,16.55
2022-07-25T06:49:12.398Z,15.95
2022-07-25T06:51:39.070Z,14.85
2022-07-25T06:54:05.869Z,16.95
2022-07-25T06:56:33.142Z,14.25
2022-07-25T06:59:00.378Z,15.85
2022-07-25T07:01:27.481Z,17.63
2022-07-25T07:03:54.202Z,16.77
2022-07-25T07:06:20.918Z,14.55
2022-07-25T07:08:47.736Z,15.75
2022-07-25T07:11:16.776Z,16.55
2022-07-25T07:13:43.365Z,15.60
2022-07-25T07:16:10.018Z,14.18
2022-07-25T07:18:37.229Z,16.63
2022-07-25T07:21:05.498Z,16.40
2022-07-25T07:23:32.763Z,17.35
2022-07-25T07:25:59.861Z,14.02
2022-07-25T07:28:26.657Z,15.88
2022-07-25T07:33:39.999Z,20.25
2022-07-25T07:36:06.842Z,15.75
2022-07-25T07:38:33.446Z,14.38
2022-07-25T07:41:00.102Z,15.52
2022-07-25T07:43:29.997Z,14.57
2022-07-25T07:46:00.722Z,14.88
2022-07-25T07:50:55.001Z,15.85
2022-07-25T07:53:21.754Z,15.48
2022-07-25T07:55:55.107Z,16.15
2022-07-25T07:58:21.794Z,16.60
2022-07-25T08:00:51.608Z,14.50
2022-07-25T08:03:21.895Z,13.82
2022-07-25T08:05:49.367Z,14.52
2022-07-25T08:08:16.398Z,14.50
2022-07-25T08:10:45.535Z,15.88
2022-07-25T08:13:24.106Z,13.57
2022-07-25T08:15:59.364Z,13.43
2022-07-25T08:18:27.440Z,17.70
2022-07-25T08:20:54.611Z,12.60
2022-07-25T08:23:22.326Z,13.00
2022-07-25T08:25:49.182Z,16.30
2022-07-25T08:28:15.871Z,14.75
2022-07-25T08:30:42.690Z,12.73
2022-07-25T08:33:13.434Z,12.52
2022-07-25T08:35:41.840Z,12.60
2022-07-25T08:38:11.405Z,12.95
2022-07-25T08:40:38.159Z,12.40
2022-07-25T08:43:04.922Z,14.18
2022-07-25T08:45:33.394Z,12.90
2022-07-25T08:48:00.048Z,13.02
2022-07-25T08:50:29.629Z,13.35
2022-07-25T08:53:16.210Z,12.52
2022-07-25T08:55:46.807Z,12.43
2022-07-25T08:58:16.080Z,12.43
2022-07-25T09:00:43.149Z,11.60
2022-07-25T09:03:10.602Z,12.57
2022-07-25T09:05:38.437Z,13.15
2022-07-25T09:08:13.143Z,14.60
2022-07-25T09:10:45.370Z,12.23
2022-07-25T09:13:16.627Z,12.43
2022-07-25T09:15:52.104Z,11.68
2022-07-25T09:18:25.090Z,15.02
2022-07-25T09:20:54.947Z,11.57
2022-07-25T09:23:28.954Z,14.37
2022-07-25T09:26:05.409Z,12.23
2022-07-25T09:28:33.456Z,12.55
2022-07-25T09:31:01.441Z,13.27
2022-07-25T09:33:29.288Z,12.50
2022-07-25T09:35:56.302Z,12.65
2022-07-25T09:38:24.697Z,11.98
2022-07-25T09:40:58.888Z,12.40
2022-07-25T09:43:44.576Z,7.75
2022-07-25T09:46:12.467Z,7.55
2022-07-25T09:48:44.124Z,7.07
2022-07-25T09:51:10.751Z,8.43
2022-07-25T09:53:37.399Z,6.65
2022-07-25T09:56:04.110Z,6.93
2022-07-25T09:58:30.699Z,6.30
2022-07-25T10:01:07.418Z,7.43
2022-07-25T10:03:50.329Z,6.07
2022-07-25T10:06:22.120Z,5.65
2022-07-25T10:08:51.050Z,5.20
2022-07-25T10:11:20.639Z,5.32
2022-07-25T10:13:47.410Z,5.22
2022-07-25T10:16:21.539Z,4.63
2022-07-25T10:18:54.141Z,5.88
2022-07-25T10:21:26.868Z,5.43
2022-07-25T10:24:09.369Z,5.53
2022-07-25T10:26:40.987Z,6.28
2022-07-25T10:29:11.903Z,5.32
2022-07-25T10:31:50.332Z,5.25
2022-07-25T10:34:29.026Z,5.18
2022-07-25T10:36:57.259Z,6.15
2022-07-25T10:39:24.135Z,5.38
2022-07-25T10:42:02.356Z,5.93
2022-07-25T10:44:41.141Z,8.60
2022-07-25T10:47:13.294Z,5.60
2022-07-25T10:50:13.558Z,5.32
2022-07-25T10:52:32.408Z,5.90
2022-07-25T10:55:00.833Z,7.32
2022-07-25T10:57:32.061Z,5.80
2022-07-25T11:00:09.118Z,5.18
2022-07-25T11:02:36.023Z,5.60
2022-07-25T11:05:04.264Z,4.63
2022-07-25T11:07:36.217Z,5.65
2022-07-25T11:10:05.510Z,6.40
2022-07-25T11:12:32.615Z,5.40
2022-07-25T11:15:04.831Z,5.78
2022-07-25T11:17:32.266Z,8.60
2022-07-25T11:20:01.391Z,5.30
2022-07-25T11:22:29.386Z,6.22
2022-07-25T11:24:57.773Z,8.20
2022-07-25T11:27:27.473Z,6.00
2022-07-25T11:30:16.625Z,5.80
2022-07-25T11:32:49.677Z,8.27
2022-07-25T11:35:24.044Z,6.57
2022-07-25T11:37:52.200Z,6.88
2022-07-25T11:40:20.589Z,11.98
2022-07-25T11:42:55.480Z,6.53
2022-07-25T11:45:26.368Z,7.70
2022-07-25T11:48:10.417Z,7.03
2022-07-25T11:50:46.105Z,6.72
2022-07-25T11:53:15.162Z,6.55
2022-07-25T11:55:43.480Z,9.55
2022-07-25T11:58:13.304Z,6.60
2022-07-25T12:00:43.901Z,6.95
2022-07-25T12:03:20.970Z,8.07
2022-07-25T12:05:49.695Z,7.78
2022-07-25T12:08:21.445Z,7.35
2022-07-25T12:10:50.584Z,7.85
2022-07-25T12:13:25.706Z,6.82
2022-07-25T12:15:52.889Z,8.05
2022-07-25T12:18:19.504Z,6.93
2022-07-25T12:20:46.146Z,7.78
2022-07-25T12:23:13.597Z,9.05
2022-07-25T12:25:45.708Z,7.55
2022-07-25T12:28:12.982Z,7.38
2022-07-25T12:30:44.154Z,8.35
2022-07-25T12:33:11.928Z,6.88
2022-07-25T12:35:40.598Z,6.78
2022-07-25T12:38:07.614Z,7.38
2022-07-25T12:40:34.343Z,7.20
2022-07-25T12:43:01.256Z,7.53
2022-07-25T12:45:28.096Z,7.45
2022-07-25T12:47:54.987Z,7.65
2022-07-25T12:50:21.724Z,7.38
2022-07-25T12:52:48.522Z,7.80
2022-07-25T12:55:18.026Z,7.53
2022-07-25T12:57:45.204Z,7.40
2022-07-25T13:00:15.204Z,10.68
2022-07-25T13:02:41.950Z,7.03
2022-07-25T13:05:09.234Z,6.93
2022-07-25T13:07:36.203Z,7.20
2022-07-25T13:10:03.809Z,9.13
2022-07-25T13:12:30.542Z,6.53
2022-07-25T13:14:57.486Z,6.97
2022-07-25T13:17:27.507Z,7.47
2022-07-25T13:22:21.571Z,6.93
2022-07-25T13:24:48.310Z,6.90
2022-07-25T13:27:18.699Z,7.00
2022-07-25T13:29:45.417Z,6.38
2022-07-25T13:32:12.111Z,8.20
2022-07-25T13:34:39.163Z,6.28
2022-07-25T13:37:06.082Z,6.53
2022-07-25T13:39:33.729Z,6.72
2022-07-25T13:42:00.387Z,6.68
2022-07-25T13:44:27.170Z,6.78
2022-07-25T13:46:53.888Z,6.55
2022-07-25T13:49:20.554Z,7.95
2022-07-25T13:51:47.646Z,9.18
2022-07-25T13:54:14.338Z,9.55
2022-07-25T13:56:42.457Z,6.57
2022-07-25T13:59:10.231Z,8.10
2022-07-25T14:01:37.769Z,7.43
2022-07-25T14:04:04.501Z,7.93
2022-07-25T14:06:31.110Z,5.60
2022-07-25T14:08:57.678Z,6.25
2022-07-25T14:11:28.670Z,6.65
2022-07-25T14:13:57.806Z,7.95
2022-07-25T14:16:24.518Z,6.65
2022-07-25T14:18:51.278Z,6.32
2022-07-25T14:21:18.301Z,6.10
2022-07-25T14:23:44.958Z,6.72
2022-07-25T14:26:11.591Z,7.65
2022-07-25T14:28:38.240Z,6.65
2022-07-25T14:31:05.008Z,6.78
2022-07-25T14:33:31.634Z,11.07
2022-07-25T14:35:59.100Z,7.75
2022-07-25T14:38:25.748Z,7.32
2022-07-25T14:40:52.397Z,6.88
2022-07-25T14:43:19.067Z,6.10
2022-07-25T14:45:45.729Z,6.57
2022-07-25T14:48:12.376Z,6.07
2022-07-25T14:50:39.043Z,8.35
2022-07-25T14:53:05.630Z,6.20
2022-07-25T14:55:32.388Z,7.53
2022-07-25T14:58:02.436Z,8.13
2022-07-25T15:00:29.828Z,7.15
2022-07-25T15:02:56.801Z,7.70
2022-07-25T15:05:23.669Z,7.05
2022-07-25T15:07:50.528Z,7.18
2022-07-25T15:10:17.359Z,8.40
2022-07-25T15:12:44.081Z,7.15
2022-07-25T15:15:11.505Z,8.60
2022-07-25T15:17:39.757Z,10.40
2022-07-25T15:20:07.110Z,10.85
2022-07-25T15:22:33.705Z,10.15
2022-07-25T15:25:45.073Z,8.73
2022-07-25T15:27:46.957Z,7.35
2022-07-25T15:30:13.562Z,8.13
2022-07-25T15:32:40.284Z,7.53
2022-07-25T15:35:07.730Z,8.07
2022-07-25T15:37:34.599Z,9.18
2022-07-25T15:40:01.326Z,9.38
2022-07-25T15:42:29.472Z,13.13
2022-07-25T15:45:22.320Z,8.85
2022-07-25T15:47:46.279Z,8.70
2022-07-25T15:50:20.579Z,9.90
2022-07-25T15:52:47.228Z,9.80
2022-07-25T15:55:13.921Z,8.57
2022-07-25T15:57:40.650Z,11.15
2022-07-25T16:00:09.049Z,11.90
2022-07-25T16:02:36.071Z,8.57
2022-07-25T16:05:04.008Z,7.82
2022-07-25T16:07:30.644Z,8.48
2022-07-25T16:09:57.255Z,9.23
2022-07-25T16:12:28.449Z,7.68
2022-07-25T16:14:56.058Z,10.65
2022-07-25T16:17:22.822Z,10.02
2022-07-25T16:19:49.629Z,14.10
2022-07-25T16:22:16.280Z,8.55
2022-07-25T16:24:42.971Z,10.02
2022-07-25T16:27:10.031Z,11.05
2022-07-25T16:29:37.437Z,10.82
2022-07-25T16:32:05.501Z,9.75
2022-07-25T16:34:32.645Z,10.80
2022-07-25T16:37:00.176Z,9.20
2022-07-25T16:39:26.940Z,10.65
2022-07-25T16:41:53.784Z,8.88
2022-07-25T16:44:20.541Z,9.73
2022-07-25T16:46:47.223Z,9.70
2022-07-25T16:49:16.776Z,10.57
2022-07-25T16:51:44.161Z,10.40
2022-07-25T16:54:11.705Z,10.82
2022-07-25T16:56:39.024Z,10.40
2022-07-25T16:59:07.105Z,11.48
2022-07-25T17:01:35.112Z,12.43
2022-07-25T17:04:02.238Z,9.63
2022-07-25T17:06:28.928Z,14.57
2022-07-25T17:08:55.691Z,9.60
2022-07-25T17:11:22.601Z,8.68
2022-07-25T17:13:49.274Z,8.88
2022-07-25T17:16:16.221Z,9.07
2022-07-25T17:18:42.984Z,9.95
2022-07-25T17:21:10.613Z,9.10
2022-07-25T17:23:37.331Z,11.50
2022-07-25T17:26:05.362Z,8.70
2022-07-25T17:28:32.453Z,12.13
2022-07-25T17:30:59.345Z,12.38
2022-07-25T17:33:26.298Z,8.75
2022-07-25T17:35:53.119Z,14.95
2022-07-25T17:38:25.330Z,9.15
2022-07-25T17:40:53.042Z,10.02
2022-07-25T17:43:19.766Z,10.00
2022-07-25T17:45:46.492Z,9.70
2022-07-25T17:48:13.144Z,9.30
2022-07-25T17:50:39.785Z,9.70
2022-07-25T17:53:06.427Z,9.23
2022-07-25T17:55:38.183Z,11.02
2022-07-25T17:58:05.451Z,10.98
2022-07-25T18:00:32.457Z,11.07
2022-07-25T18:02:59.462Z,12.18
2022-07-25T18:05:26.210Z,9.23
2022-07-25T18:07:53.621Z,11.35
2022-07-25T18:10:21.814Z,10.85
2022-07-25T18:12:49.563Z,9.85
2022-07-25T18:15:16.595Z,8.98
2022-07-25T18:17:47.578Z,9.25
2022-07-25T18:20:16.215Z,9.32
2022-07-25T18:22:43.153Z,9.38
2022-07-25T18:25:11.674Z,10.75
2022-07-25T18:27:43.076Z,10.70
2022-07-25T18:30:10.784Z,10.95
2022-07-25T18:32:38.207Z,9.27
2022-07-25T18:35:05.444Z,12.02
2022-07-25T18:37:32.147Z,10.90
2022-07-25T18:39:58.711Z,11.07
2022-07-25T18:42:29.690Z,10.07
2022-07-25T18:44:57.210Z,10.60
2022-07-25T18:47:26.306Z,9.57
2022-07-25T18:49:57.681Z,10.38
2022-07-25T18:52:24.597Z,9.55
2022-07-25T18:54:51.225Z,10.30
2022-07-25T18:57:17.877Z,10.93
2022-07-25T18:59:44.609Z,9.57
2022-07-25T19:02:11.323Z,8.35
2022-07-25T19:04:38.054Z,9.55
2022-07-25T19:07:04.754Z,11.18
2022-07-25T19:09:31.325Z,14.30
2022-07-25T19:11:57.994Z,11.55
2022-07-25T19:14:26.128Z,9.73
2022-07-25T19:16:53.835Z,9.50
2022-07-25T19:19:20.657Z,8.60
2022-07-25T19:21:47.372Z,12.20
2022-07-25T19:24:14.167Z,10.43
2022-07-25T19:26:41.285Z,14.32
2022-07-25T19:29:09.319Z,7.97
2022-07-25T19:31:39.651Z,15.48
2022-07-25T19:34:07.086Z,14.75
2022-07-25T19:36:34.043Z,8.75
2022-07-25T19:39:01.292Z,9.23
2022-07-25T19:41:28.465Z,10.63
2022-07-25T19:43:55.044Z,11.27
2022-07-25T19:46:21.776Z,9.18
2022-07-25T19:48:48.837Z,16.50
2022-07-25T19:51:15.635Z,11.30
2022-07-25T19:53:42.253Z,8.98
2022-07-25T19:56:09.255Z,9.82
2022-07-25T19:58:38.959Z,11.73
2022-07-25T20:01:09.980Z,10.63
2022-07-25T20:03:36.714Z,8.45
2022-07-25T20:06:07.821Z,7.50
2022-07-25T20:08:35.407Z,16.65
2022-07-25T20:11:02.048Z,11.05
2022-07-25T20:13:29.688Z,13.00
2022-07-25T20:15:57.301Z,8.05
2022-07-25T20:18:24.176Z,9.75
2022-07-25T20:20:50.831Z,8.00
2022-07-25T20:23:17.563Z,17.90
2022-07-25T20:25:44.571Z,8.77
2022-07-25T20:28:11.436Z,6.60
2022-07-25T20:30:38.221Z,13.25
2022-07-25T20:33:05.486Z,6.63
2022-07-25T20:35:37.275Z,7.97
2022-07-25T20:38:09.187Z,8.32
2022-07-25T20:40:46.300Z,7.70
2022-07-25T20:43:14.991Z,10.48
2022-07-25T20:45:41.849Z,8.38
2022-07-25T20:48:08.808Z,5.55
2022-07-25T20:50:37.191Z,13.38
2022-07-25T20:53:04.974Z,18.50
2022-07-25T20:55:31.762Z,15.40
2022-07-25T20:57:59.308Z,8.02
2022-07-25T21:00:27.770Z,7.57
2022-07-25T21:02:54.912Z,11.05
2022-07-25T21:05:21.770Z,8.15
2022-07-25T21:07:48.397Z,6.90
2022-07-25T21:10:15.451Z,8.02
2022-07-25T21:12:42.861Z,6.78
2022-07-25T21:15:10.011Z,7.30
2022-07-25T21:17:36.878Z,6.68
2022-07-25T21:20:04.533Z,6.40
2022-07-25T21:22:31.202Z,8.68
2022-07-25T21:24:57.983Z,7.13
2022-07-25T21:27:24.658Z,7.18
2022-07-25T21:29:51.294Z,10.98
2022-07-25T21:32:18.903Z,13.50
2022-07-25T21:34:45.721Z,8.70
2022-07-25T21:37:13.510Z,6.43
2022-07-25T21:39:40.215Z,5.60
2022-07-25T21:42:10.103Z,7.60
2022-07-25T21:44:39.110Z,4.47
2022-07-25T21:47:06.359Z,9.25
2022-07-25T21:49:51.739Z,9.23
2022-07-25T21:52:18.547Z,4.68
2022-07-25T21:54:45.790Z,7.18
2022-07-25T21:57:13.237Z,10.55
2022-07-25T21:59:44.843Z,8.45
2022-07-25T22:02:12.380Z,5.43
2022-07-25T22:04:39.457Z,4.35
2022-07-25T22:07:06.380Z,7.55
2022-07-25T22:09:33.029Z,4.45
2022-07-25T22:11:59.699Z,5.70
2022-07-25T22:14:26.470Z,9.23
2022-07-25T22:16:53.455Z,5.13
2022-07-25T22:19:22.530Z,10.27
2022-07-25T22:21:50.134Z,8.23
2022-07-25T22:24:16.996Z,4.53
2022-07-25T22:26:43.800Z,3.47
2022-07-25T22:29:11.334Z,6.43
2022-07-25T22:31:39.181Z,6.45
2022-07-25T22:34:06.464Z,6.60
2022-07-25T22:36:33.068Z,6.07
2022-07-25T22:38:59.717Z,5.45
2022-07-25T22:41:26.385Z,6.57
2022-07-25T22:43:59.134Z,7.82
2022-07-25T22:46:30.538Z,7.53
2022-07-25T22:48:58.594Z,3.95
2022-07-25T22:51:26.546Z,12.18
2022-07-25T22:53:53.469Z,8.02
2022-07-25T22:56:20.265Z,6.30
2022-07-25T22:58:49.279Z,4.93
2022-07-25T23:01:17.698Z,4.40
2022-07-25T23:03:45.007Z,6.43
2022-07-25T23:06:11.826Z,3.67
2022-07-25T23:08:38.505Z,6.82
2022-07-25T23:11:06.102Z,7.93
2022-07-25T23:13:34.443Z,6.03
2022-07-25T23:16:03.314Z,10.07
2022-07-25T23:18:30.409Z,4.90
2022-07-25T23:20:57.246Z,4.13
2022-07-25T23:23:23.935Z,6.15
2022-07-25T23:25:50.539Z,10.60
2022-07-25T23:28:17.106Z,14.70
2022-07-25T23:30:43.705Z,7.53
2022-07-25T23:33:10.504Z,4.97
2022-07-25T23:35:37.822Z,5.03
2022-07-25T23:38:04.466Z,7.30
2022-07-25T23:40:31.178Z,6.32
2022-07-25T23:42:57.808Z,4.00
2022-07-25T23:45:27.842Z,4.72
2022-07-25T23:47:55.722Z,4.30
2022-07-25T23:50:23.309Z,4.57
2022-07-25T23:52:49.973Z,5.22
2022-07-25T23:55:16.581Z,7.68
2022-07-25T23:57:43.294Z,7.18
